Time;durP1;ratioP1;P1;durP2;ratioP2;P2;SDS_P1;SDS_P2;PMS_P1;PMS_P2;Temp;Humidity;BMP_temperature;BMP_pressure;BME280_temperature;BME280_humidity;BME280_pressure;Samples;Min_cycle;Max_cycle;Signal;HPM_P1;HPM_P2
2021/12/08 00:01:05;;;;;;;0.90;0.90;;;;;;;;;;5077596;28;20634;-70
2021/12/08 00:03:33;;;;;;;1.37;0.87;;;;;;;;;;5077422;28;20579;-70
2021/12/08 00:06:02;;;;;;;0.80;0.80;;;;;;;;;;5077459;28;20236;-70
2021/12/08 00:08:30;;;;;;;0.93;0.70;;;;;;;;;;5077514;28;20240;-70
2021/12/08 00:13:46;;;;;;;2.13;0.80;;;;;;;;;;5077472;28;20289;-70
2021/12/08 00:16:14;;;;;;;1.87;0.97;;;;;;;;;;5077315;28;20217;-70
2021/12/08 00:18:47;;;;;;;0.60;0.60;;;;;;;;;;5077208;28;20234;-70
2021/12/08 00:21:15;;;;;;;0.60;0.60;;;;;;;;;;5083002;28;20351;-70
2021/12/08 00:23:44;;;;;;;2.73;0.70;;;;;;;;;;5082487;28;20206;-70
2021/12/08 00:26:12;;;;;;;0.77;0.77;;;;;;;;;;5077361;28;20210;-70
2021/12/08 00:28:40;;;;;;;0.50;0.50;;;;;;;;;;5084824;28;20225;-70
2021/12/08 00:31:09;;;;;;;1.37;0.80;;;;;;;;;;5077579;28;20206;-70
2021/12/08 00:33:37;;;;;;;0.73;0.73;;;;;;;;;;5077530;28;20209;-70
2021/12/08 00:36:09;;;;;;;0.70;0.70;;;;;;;;;;5076909;28;20242;-70
2021/12/08 00:38:38;;;;;;;0.50;0.50;;;;;;;;;;5081290;28;20233;-70
2021/12/08 00:41:06;;;;;;;0.80;0.77;;;;;;;;;;5077446;28;20216;-70
2021/12/08 00:43:34;;;;;;;0.50;0.50;;;;;;;;;;5077371;28;20217;-70
2021/12/08 00:46:03;;;;;;;0.60;0.60;;;;;;;;;;5077523;28;20213;-70
2021/12/08 00:48:32;;;;;;;0.50;0.50;;;;;;;;;;5076741;28;20222;-70
2021/12/08 00:51:00;;;;;;;0.50;0.50;;;;;;;;;;5082176;28;20312;-70
2021/12/08 00:53:28;;;;;;;0.70;0.70;;;;;;;;;;5097157;28;20223;-70
2021/12/08 00:55:56;;;;;;;0.60;0.60;;;;;;;;;;5097078;28;20300;-70
2021/12/08 00:58:24;;;;;;;0.70;0.70;;;;;;;;;;5097354;28;20268;-70
2021/12/08 01:00:53;;;;;;;0.53;0.53;;;;;;;;;;5097178;28;20243;-69
2021/12/08 01:03:21;;;;;;;0.70;0.70;;;;;;;;;;5097378;28;20205;-70
2021/12/08 01:05:52;;;;;;;1.23;0.97;;;;;;;;;;5097033;28;20207;-69
2021/12/08 01:08:21;;;;;;;0.60;0.60;;;;;;;;;;5097024;28;20225;-70
2021/12/08 01:10:50;;;;;;;2.13;0.87;;;;;;;;;;5097098;28;20225;-69
2021/12/08 01:13:19;;;;;;;2.10;0.97;;;;;;;;;;5097014;28;20722;-69
2021/12/08 01:15:48;;;;;;;0.87;0.67;;;;;;;;;;5097310;28;20201;-69
2021/12/08 01:18:17;;;;;;;0.50;0.50;;;;;;;;;;5096878;28;20229;-69
2021/12/08 01:20:45;;;;;;;0.60;0.60;;;;;;;;;;5095898;28;20281;-69
2021/12/08 01:23:15;;;;;;;1.13;0.80;;;;;;;;;;5093334;28;20682;-69
2021/12/08 01:25:43;;;;;;;1.17;0.80;;;;;;;;;;5080323;28;20289;-69
2021/12/08 01:28:11;;;;;;;0.73;0.67;;;;;;;;;;5082449;28;20234;-69
2021/12/08 01:30:39;;;;;;;0.63;0.63;;;;;;;;;;5085014;28;20222;-69
2021/12/08 01:33:07;;;;;;;1.90;0.80;;;;;;;;;;5080525;28;20206;-69
2021/12/08 01:35:35;;;;;;;1.90;0.60;;;;;;;;;;5079511;28;20214;-70
2021/12/08 01:38:04;;;;;;;0.60;0.60;;;;;;;;;;5080163;28;20601;-69
2021/12/08 01:40:33;;;;;;;1.17;0.80;;;;;;;;;;5084167;28;20206;-69
2021/12/08 01:43:03;;;;;;;1.23;0.70;;;;;;;;;;5080217;28;20206;-69
2021/12/08 01:48:18;;;;;;;0.50;0.50;;;;;;;;;;5080185;28;20236;-69
2021/12/08 01:50:47;;;;;;;0.70;0.70;;;;;;;;;;5085356;28;20232;-69
2021/12/08 01:53:15;;;;;;;1.33;0.70;;;;;;;;;;5080250;28;20210;-69
2021/12/08 01:55:45;;;;;;;1.07;0.60;;;;;;;;;;5084212;28;20202;-69
2021/12/08 01:58:14;;;;;;;0.53;0.53;;;;;;;;;;5080215;28;20226;-69
2021/12/08 02:00:43;;;;;;;0.93;0.80;;;;;;;;;;5079749;28;20250;-69
2021/12/08 02:03:11;;;;;;;0.53;0.53;;;;;;;;;;5091124;28;20209;-69
2021/12/08 02:05:39;;;;;;;1.27;0.73;;;;;;;;;;5099467;28;20205;-69
2021/12/08 02:08:07;;;;;;;1.77;0.70;;;;;;;;;;5100052;28;20243;-71
2021/12/08 02:10:37;;;;;;;1.07;1.00;;;;;;;;;;5099838;28;20228;-70
2021/12/08 02:13:06;;;;;;;0.70;0.70;;;;;;;;;;5099779;28;20227;-70
2021/12/08 02:15:36;;;;;;;1.00;0.47;;;;;;;;;;5099916;28;20216;-70
2021/12/08 02:18:04;;;;;;;1.27;0.60;;;;;;;;;;5099906;28;20757;-70
2021/12/08 02:20:32;;;;;;;0.60;0.60;;;;;;;;;;5099478;28;20201;-70
2021/12/08 02:23:01;;;;;;;0.80;0.80;;;;;;;;;;5086677;28;20210;-70
2021/12/08 02:25:29;;;;;;;0.80;0.80;;;;;;;;;;5086560;28;20210;-70
2021/12/08 02:27:58;;;;;;;0.83;0.63;;;;;;;;;;5099134;28;20208;-70
2021/12/08 02:30:32;;;;;;;0.50;0.50;;;;;;;;;;5079244;28;20316;-70
2021/12/08 02:47:09;;;;;;;0.83;0.63;;;;;;;;;;5074834;28;20206;-70
2021/12/08 02:49:38;;;;;;;1.80;0.80;;;;;;;;;;5078851;28;20230;-70
2021/12/08 02:52:07;;;;;;;1.53;0.63;;;;;;;;;;5078251;28;20847;-70
2021/12/08 02:54:38;;;;;;;1.17;1.00;;;;;;;;;;5088521;28;20202;-69
2021/12/08 02:57:06;;;;;;;0.63;0.63;;;;;;;;;;5078884;28;20665;-70
2021/12/08 02:59:35;;;;;;;0.60;0.60;;;;;;;;;;5078588;28;20222;-70
2021/12/08 03:02:03;;;;;;;0.83;0.83;;;;;;;;;;5079240;28;20234;-69
2021/12/08 03:04:31;;;;;;;1.30;1.00;;;;;;;;;;5098874;28;20309;-70
2021/12/08 03:06:59;;;;;;;0.77;0.77;;;;;;;;;;5098223;28;20284;-70
2021/12/08 03:09:28;;;;;;;0.80;0.70;;;;;;;;;;5098976;28;20225;-69
2021/12/08 03:11:58;;;;;;;0.93;0.93;;;;;;;;;;5098811;28;20269;-69
2021/12/08 03:14:28;;;;;;;0.77;0.77;;;;;;;;;;5098967;28;20201;-70
2021/12/08 03:16:57;;;;;;;0.97;0.80;;;;;;;;;;5098718;28;20236;-70
2021/12/08 03:19:26;;;;;;;0.63;0.63;;;;;;;;;;5098413;28;20232;-70
2021/12/08 03:21:55;;;;;;;0.87;0.87;;;;;;;;;;5094438;28;20209;-70
2021/12/08 03:24:27;;;;;;;0.70;0.70;;;;;;;;;;5078343;28;20206;-70
2021/12/08 03:27:06;;;;;;;0.80;0.80;;;;;;;;;;5078354;28;20688;-70
2021/12/08 03:29:43;;;;;;;1.97;1.00;;;;;;;;;;5078741;28;20221;-69
2021/12/08 03:32:14;;;;;;;1.23;0.90;;;;;;;;;;5085368;28;20579;-69
2021/12/08 03:34:50;;;;;;;0.70;0.47;;;;;;;;;;5086794;28;20212;-70
2021/12/08 03:37:19;;;;;;;0.70;0.70;;;;;;;;;;5077615;28;20237;-69
2021/12/08 03:39:49;;;;;;;0.63;0.63;;;;;;;;;;5079445;28;20222;-69
2021/12/08 03:42:17;;;;;;;0.50;0.50;;;;;;;;;;5077897;28;20701;-69
2021/12/08 03:44:46;;;;;;;1.17;0.80;;;;;;;;;;5077826;28;20213;-69
2021/12/08 03:47:17;;;;;;;2.87;0.93;;;;;;;;;;5078066;28;20208;-69
2021/12/08 03:49:48;;;;;;;0.97;0.83;;;;;;;;;;5077711;28;20305;-69
2021/12/08 03:52:16;;;;;;;0.90;0.90;;;;;;;;;;5077432;28;20226;-69
2021/12/08 03:54:44;;;;;;;1.40;1.10;;;;;;;;;;5086530;28;20215;-69
2021/12/08 03:57:12;;;;;;;0.90;0.80;;;;;;;;;;5077992;28;20216;-69
2021/12/08 03:59:40;;;;;;;0.73;0.73;;;;;;;;;;5077891;28;20230;-69
2021/12/08 04:02:09;;;;;;;1.20;1.10;;;;;;;;;;5079178;28;20216;-69
2021/12/08 04:04:44;;;;;;;1.13;0.97;;;;;;;;;;5097399;28;20213;-70
2021/12/08 04:07:14;;;;;;;1.53;1.00;;;;;;;;;;5097663;28;20208;-70
2021/12/08 04:09:44;;;;;;;0.70;0.70;;;;;;;;;;5098527;28;20229;-69
2021/12/08 04:12:15;;;;;;;1.13;0.60;;;;;;;;;;5097693;28;20231;-69
2021/12/08 04:14:46;;;;;;;0.87;0.80;;;;;;;;;;5098213;28;20216;-70
2021/12/08 04:17:16;;;;;;;0.80;0.80;;;;;;;;;;5098024;28;20209;-69
2021/12/08 04:19:45;;;;;;;0.67;0.67;;;;;;;;;;5097994;28;20312;-69
2021/12/08 04:22:15;;;;;;;1.13;0.80;;;;;;;;;;5092536;28;20202;-70
2021/12/08 04:24:44;;;;;;;2.47;1.13;;;;;;;;;;5077648;28;20206;-69
2021/12/08 04:27:14;;;;;;;2.07;0.80;;;;;;;;;;5077389;28;20210;-70
2021/12/08 04:29:43;;;;;;;0.90;0.90;;;;;;;;;;5078822;28;20218;-69
2021/12/08 04:32:13;;;;;;;0.93;0.93;;;;;;;;;;5079253;28;20714;-70
2021/12/08 04:34:45;;;;;;;0.73;0.67;;;;;;;;;;5097823;28;20212;-70
2021/12/08 04:37:19;;;;;;;1.70;0.90;;;;;;;;;;5096852;28;20320;-69
2021/12/08 04:39:56;;;;;;;0.87;0.67;;;;;;;;;;5085640;28;20598;-69
2021/12/08 04:42:37;;;;;;;1.03;1.03;;;;;;;;;;5077109;28;20213;-70
2021/12/08 04:45:11;;;;;;;1.20;1.07;;;;;;;;;;5077305;28;20209;-70
2021/12/08 04:47:53;;;;;;;1.27;1.00;;;;;;;;;;5077035;28;20661;-70
2021/12/08 04:50:45;;;;;;;1.03;1.03;;;;;;;;;;5076693;28;20256;-70
2021/12/08 04:53:31;;;;;;;1.03;1.03;;;;;;;;;;5076843;28;20222;-70
2021/12/08 05:01:56;;;;;;;0.87;0.83;;;;;;;;;;5100820;28;20216;-70
2021/12/08 05:04:38;;;;;;;1.20;1.20;;;;;;;;;;5097914;28;20201;-70
2021/12/08 05:07:29;;;;;;;1.60;1.47;;;;;;;;;;5100228;28;20208;-69
2021/12/08 05:09:58;;;;;;;2.40;1.60;;;;;;;;;;5101097;28;20228;-69
2021/12/08 05:12:28;;;;;;;1.90;1.60;;;;;;;;;;5101034;28;20225;-70
2021/12/08 05:14:57;;;;;;;2.33;2.00;;;;;;;;;;5100842;28;20290;-70
2021/12/08 05:17:29;;;;;;;1.43;1.07;;;;;;;;;;5100774;28;20212;-69
2021/12/08 05:20:04;;;;;;;0.73;0.73;;;;;;;;;;5099768;28;20227;-69
2021/12/08 05:22:36;;;;;;;3.27;1.00;;;;;;;;;;5100782;28;20207;-67
2021/12/08 05:25:06;;;;;;;2.77;1.37;;;;;;;;;;5100649;28;20198;-67
2021/12/08 05:27:39;;;;;;;0.90;0.80;;;;;;;;;;5100529;28;20724;-67
2021/12/08 05:30:09;;;;;;;1.20;0.90;;;;;;;;;;5085063;28;20262;-67
2021/12/08 05:32:37;;;;;;;1.27;0.90;;;;;;;;;;5080440;28;20242;-70
2021/12/08 05:35:07;;;;;;;1.90;1.80;;;;;;;;;;5091511;28;20243;-67
2021/12/08 05:37:36;;;;;;;2.73;1.70;;;;;;;;;;5082148;28;20630;-67
2021/12/08 05:40:06;;;;;;;2.27;1.70;;;;;;;;;;5092128;28;20788;-67
2021/12/08 05:42:36;;;;;;;1.80;1.70;;;;;;;;;;5082670;28;20202;-66
2021/12/08 05:45:06;;;;;;;1.90;1.70;;;;;;;;;;5080240;28;20210;-66
2021/12/08 05:47:34;;;;;;;1.50;1.40;;;;;;;;;;5079934;28;20447;-66
2021/12/08 05:50:02;;;;;;;3.70;1.97;;;;;;;;;;5079317;28;20983;-66
2021/12/08 05:52:30;;;;;;;2.37;1.37;;;;;;;;;;5081293;28;20833;-66
2021/12/08 05:55:01;;;;;;;3.33;1.10;;;;;;;;;;5092563;28;20457;-66
2021/12/08 05:57:33;;;;;;;0.67;0.67;;;;;;;;;;5100141;28;20450;-66
2021/12/08 06:00:01;;;;;;;1.10;1.00;;;;;;;;;;5099782;28;20497;-66
2021/12/08 06:02:32;;;;;;;1.13;0.97;;;;;;;;;;5097910;28;20522;-66
2021/12/08 06:05:01;;;;;;;1.23;1.23;;;;;;;;;;5099475;28;20443;-66
2021/12/08 06:07:29;;;;;;;1.17;1.00;;;;;;;;;;5099567;28;20855;-66
2021/12/08 06:09:58;;;;;;;1.63;0.87;;;;;;;;;;5099590;28;20495;-66
2021/12/08 06:12:28;;;;;;;3.23;1.97;;;;;;;;;;5099744;28;20501;-67
2021/12/08 06:14:56;;;;;;;1.90;1.30;;;;;;;;;;5092280;28;20463;-67
2021/12/08 06:17:27;;;;;;;3.57;1.40;;;;;;;;;;5090575;28;20441;-68
2021/12/08 06:19:55;;;;;;;0.93;0.93;;;;;;;;;;5091255;28;20466;-68
2021/12/08 06:22:24;;;;;;;1.13;0.83;;;;;;;;;;5088642;28;20435;-68
2021/12/08 06:24:52;;;;;;;1.20;1.10;;;;;;;;;;5092748;28;20441;-68
2021/12/08 06:27:26;;;;;;;1.10;1.10;;;;;;;;;;5090543;28;20531;-67
2021/12/08 06:29:55;;;;;;;1.23;1.03;;;;;;;;;;5098778;28;20460;-68
2021/12/08 06:32:23;;;;;;;0.77;0.73;;;;;;;;;;5098769;28;20506;-68
2021/12/08 06:34:53;;;;;;;1.40;1.30;;;;;;;;;;5082048;28;20480;-68
2021/12/08 06:37:25;;;;;;;1.10;1.00;;;;;;;;;;5089406;28;20480;-68
2021/12/08 06:39:55;;;;;;;1.33;1.23;;;;;;;;;;5091111;28;20452;-67
2021/12/08 06:42:25;;;;;;;1.27;1.13;;;;;;;;;;5090040;28;21025;-67
2021/12/08 06:44:55;;;;;;;2.03;1.30;;;;;;;;;;5090575;28;20432;-67
2021/12/08 06:47:27;;;;;;;1.03;1.03;;;;;;;;;;5090076;28;20935;-68
2021/12/08 06:49:57;;;;;;;1.30;1.20;;;;;;;;;;5089834;28;20455;-67
2021/12/08 06:52:27;;;;;;;1.33;1.03;;;;;;;;;;5088782;28;20472;-67
2021/12/08 06:54:58;;;;;;;2.07;1.10;;;;;;;;;;5087467;28;20450;-67
2021/12/08 06:57:29;;;;;;;3.03;1.30;;;;;;;;;;5091617;28;20439;-67
2021/12/08 07:00:03;;;;;;;1.50;1.30;;;;;;;;;;5081452;28;20547;-67
2021/12/08 07:02:54;;;;;;;2.43;1.50;;;;;;;;;;5089367;28;20428;-67
2021/12/08 07:05:29;;;;;;;1.27;1.20;;;;;;;;;;5088873;28;20444;-67
2021/12/08 07:07:59;;;;;;;1.30;1.23;;;;;;;;;;5079469;28;20448;-67
2021/12/08 07:10:29;;;;;;;1.53;1.43;;;;;;;;;;5078024;28;20455;-68
2021/12/08 07:12:59;;;;;;;1.57;1.27;;;;;;;;;;5078329;28;20484;-68
2021/12/08 07:15:31;;;;;;;3.00;1.47;;;;;;;;;;5078201;28;20444;-68
2021/12/08 07:18:00;;;;;;;3.77;1.50;;;;;;;;;;5078181;28;20504;-67
2021/12/08 07:20:41;;;;;;;1.83;1.10;;;;;;;;;;5087453;28;20520;-68
2021/12/08 07:23:09;;;;;;;1.43;1.13;;;;;;;;;;5077976;28;20846;-68
2021/12/08 07:25:37;;;;;;;2.00;1.30;;;;;;;;;;5094829;28;20454;-68
2021/12/08 07:28:06;;;;;;;2.20;1.60;;;;;;;;;;5096568;28;20523;-69
2021/12/08 07:30:39;;;;;;;3.10;1.63;;;;;;;;;;5077800;28;20441;-68
2021/12/08 07:33:07;;;;;;;1.73;1.63;;;;;;;;;;5077583;28;21021;-68
2021/12/08 07:35:38;;;;;;;2.80;1.50;;;;;;;;;;5077503;28;20444;-68
2021/12/08 07:38:08;;;;;;;2.90;1.40;;;;;;;;;;5078020;28;20496;-68
2021/12/08 07:40:39;;;;;;;3.93;1.57;;;;;;;;;;5097364;28;20447;-69
2021/12/08 07:43:10;;;;;;;2.77;1.47;;;;;;;;;;5097980;28;20522;-68
2021/12/08 07:45:45;;;;;;;2.97;1.80;;;;;;;;;;5097990;28;20449;-68
2021/12/08 07:48:15;;;;;;;3.30;1.93;;;;;;;;;;5097774;28;20282;-67
2021/12/08 07:50:45;;;;;;;2.90;1.60;;;;;;;;;;5097635;28;20482;-68
2021/12/08 07:53:16;;;;;;;2.77;1.50;;;;;;;;;;5097817;28;20343;-68
2021/12/08 07:55:45;;;;;;;1.83;1.73;;;;;;;;;;5087167;28;20464;-68
2021/12/08 07:58:14;;;;;;;4.37;2.57;;;;;;;;;;5082393;28;20476;-68
2021/12/08 08:00:47;;;;;;;2.83;2.17;;;;;;;;;;5081457;28;20443;-68
2021/12/08 08:03:16;;;;;;;3.53;2.77;;;;;;;;;;5088162;28;20528;-68
2021/12/08 08:05:45;;;;;;;2.13;1.37;;;;;;;;;;5088256;28;20578;-69
2021/12/08 08:08:15;;;;;;;2.00;1.80;;;;;;;;;;5091420;28;20304;-68
2021/12/08 08:10:47;;;;;;;2.30;1.80;;;;;;;;;;5078412;28;20727;-69
2021/12/08 08:13:16;;;;;;;2.83;1.83;;;;;;;;;;5077315;28;20239;-69
2021/12/08 08:15:48;;;;;;;5.00;2.27;;;;;;;;;;5078843;28;20276;-68
2021/12/08 08:18:20;;;;;;;3.97;2.13;;;;;;;;;;5076856;28;20226;-68
2021/12/08 08:20:51;;;;;;;1.63;1.53;;;;;;;;;;5079175;28;20233;-68
2021/12/08 08:23:20;;;;;;;2.27;1.33;;;;;;;;;;5086516;28;20204;-68
2021/12/08 08:25:49;;;;;;;3.03;1.57;;;;;;;;;;5077485;28;20217;-69
2021/12/08 08:28:18;;;;;;;4.33;1.83;;;;;;;;;;5079880;28;20221;-68
2021/12/08 08:30:49;;;;;;;3.73;1.77;;;;;;;;;;5097652;28;20208;-68
2021/12/08 08:33:18;;;;;;;3.87;1.67;;;;;;;;;;5101768;28;20218;-68
2021/12/08 08:35:48;;;;;;;1.90;1.60;;;;;;;;;;5101016;28;20261;-68
2021/12/08 08:38:18;;;;;;;3.63;1.70;;;;;;;;;;5101284;28;20698;-68
2021/12/08 08:40:48;;;;;;;10.90;2.70;;;;;;;;;;5091658;28;20237;-69
2021/12/08 08:43:17;;;;;;;9.43;3.50;;;;;;;;;;5081147;28;20213;-68
2021/12/08 08:45:52;;;;;;;3.43;1.80;;;;;;;;;;5081259;28;20714;-68
2021/12/08 08:48:22;;;;;;;1.63;1.30;;;;;;;;;;5080804;28;20238;-68
2021/12/08 08:50:52;;;;;;;2.07;1.70;;;;;;;;;;5085330;28;20288;-69
2021/12/08 08:53:21;;;;;;;3.03;1.43;;;;;;;;;;5080836;28;20206;-69
2021/12/08 08:55:50;;;;;;;2.83;1.87;;;;;;;;;;5080888;28;20202;-67
2021/12/08 08:58:19;;;;;;;2.67;1.97;;;;;;;;;;5091381;28;20226;-67
2021/12/08 09:00:50;;;;;;;6.53;3.80;;;;;;;;;;5091889;28;20200;-68
2021/12/08 09:03:20;;;;;;;8.50;3.43;;;;;;;;;;5091492;28;20251;-69
2021/12/08 09:05:52;;;;;;;6.13;3.50;;;;;;;;;;5093671;28;20202;-69
2021/12/08 09:08:23;;;;;;;5.27;3.20;;;;;;;;;;5101104;28;20320;-68
2021/12/08 09:10:55;;;;;;;7.27;4.50;;;;;;;;;;5101084;28;20668;-68
2021/12/08 09:13:26;;;;;;;6.73;3.33;;;;;;;;;;5100729;28;20284;-69
2021/12/08 09:15:59;;;;;;;6.53;2.17;;;;;;;;;;5100620;28;20714;-69
2021/12/08 09:18:30;;;;;;;5.53;2.20;;;;;;;;;;5100419;28;20225;-69
2021/12/08 09:21:11;;;;;;;1.80;1.70;;;;;;;;;;5096834;28;20638;-68
2021/12/08 09:23:42;;;;;;;2.17;1.70;;;;;;;;;;5080313;28;20289;-68
2021/12/08 09:26:11;;;;;;;6.10;1.83;;;;;;;;;;5097022;28;20206;-68
2021/12/08 09:28:41;;;;;;;2.03;1.80;;;;;;;;;;5097463;28;20308;-68
2021/12/08 09:31:16;;;;;;;2.73;1.70;;;;;;;;;;5100861;28;20201;-69
2021/12/08 09:33:47;;;;;;;1.80;1.50;;;;;;;;;;5101214;28;20201;-69
2021/12/08 09:36:18;;;;;;;2.03;1.80;;;;;;;;;;5100517;28;20240;-69
2021/12/08 09:38:48;;;;;;;1.67;1.50;;;;;;;;;;5098583;28;20312;-69
2021/12/08 09:41:27;;;;;;;1.80;1.60;;;;;;;;;;5080131;28;20255;-68
2021/12/08 09:43:57;;;;;;;3.33;1.67;;;;;;;;;;5094020;28;20289;-68
2021/12/08 09:46:28;;;;;;;5.60;2.00;;;;;;;;;;5086157;28;20212;-68
2021/12/08 09:49:01;;;;;;;2.70;1.70;;;;;;;;;;5081809;28;20221;-69
2021/12/08 09:51:30;;;;;;;1.60;1.50;;;;;;;;;;5099358;28;20255;-69
2021/12/08 09:53:58;;;;;;;2.03;1.80;;;;;;;;;;5082941;28;20847;-68
2021/12/08 09:56:27;;;;;;;3.90;1.93;;;;;;;;;;5082602;28;20201;-69
2021/12/08 09:58:55;;;;;;;1.90;1.70;;;;;;;;;;5091744;28;20220;-69
2021/12/08 10:01:24;;;;;;;6.03;2.07;;;;;;;;;;5090874;28;20544;-69
2021/12/08 10:03:55;;;;;;;3.23;2.17;;;;;;;;;;5091448;28;20229;-69
2021/12/08 10:06:25;;;;;;;3.27;2.43;;;;;;;;;;5093254;28;20202;-69
2021/12/08 10:08:57;;;;;;;2.53;1.97;;;;;;;;;;5098875;28;20243;-69
2021/12/08 10:11:26;;;;;;;2.47;2.23;;;;;;;;;;5099051;28;20205;-69
2021/12/08 10:13:54;;;;;;;5.27;1.63;;;;;;;;;;5099815;28;20205;-69
2021/12/08 10:16:23;;;;;;;2.13;1.90;;;;;;;;;;5100541;28;20202;-68
2021/12/08 10:18:51;;;;;;;2.73;1.80;;;;;;;;;;5100107;28;20268;-69
2021/12/08 10:21:21;;;;;;;4.00;1.83;;;;;;;;;;5099301;28;20240;-69
2021/12/08 10:23:51;;;;;;;2.30;1.50;;;;;;;;;;5080000;28;20630;-69
2021/12/08 10:26:20;;;;;;;1.60;1.50;;;;;;;;;;5079795;28;20205;-68
2021/12/08 10:28:50;;;;;;;3.00;1.43;;;;;;;;;;5085288;28;20219;-68
2021/12/08 10:31:25;;;;;;;1.87;1.23;;;;;;;;;;5099420;28;20222;-69
2021/12/08 10:34:00;;;;;;;1.97;1.53;;;;;;;;;;5099436;28;20251;-69
2021/12/08 10:36:45;;;;;;;2.17;1.43;;;;;;;;;;5098937;28;20229;-69
2021/12/08 10:39:18;;;;;;;4.13;1.80;;;;;;;;;;5089282;28;20226;-69
2021/12/08 10:41:49;;;;;;;2.10;1.50;;;;;;;;;;5079032;28;20209;-69
2021/12/08 10:44:44;;;;;;;1.47;1.33;;;;;;;;;;5078713;28;20202;-69
2021/12/08 10:47:13;;;;;;;3.90;2.20;;;;;;;;;;5095087;28;20213;-69
2021/12/08 10:55:17;;;;;;;2.17;1.87;;;;;;;;;;5086168;28;20217;-68
2021/12/08 10:57:46;;;;;;;2.33;1.90;;;;;;;;;;5086171;28;20198;-68
2021/12/08 11:00:18;;;;;;;3.60;3.30;;;;;;;;;;5089176;28;20451;-69
2021/12/08 11:02:47;;;;;;;1.90;1.70;;;;;;;;;;5095429;28;20983;-69
2021/12/08 11:05:31;;;;;;;3.07;1.67;;;;;;;;;;5098406;28;20446;-69
2021/12/08 11:08:02;;;;;;;4.37;2.40;;;;;;;;;;5098739;28;20507;-68
2021/12/08 11:10:30;;;;;;;2.43;2.20;;;;;;;;;;5098475;28;20809;-69
2021/12/08 11:12:58;;;;;;;3.37;1.60;;;;;;;;;;5098762;28;20530;-68
2021/12/08 11:15:28;;;;;;;3.67;1.83;;;;;;;;;;5092358;28;20872;-66
2021/12/08 11:18:09;;;;;;;3.17;2.30;;;;;;;;;;5090004;28;20223;-69
2021/12/08 11:20:42;;;;;;;6.50;4.40;;;;;;;;;;5090822;28;20277;-70
2021/12/08 11:23:15;;;;;;;2.57;2.00;;;;;;;;;;5082260;28;20298;-67
2021/12/08 11:25:46;;;;;;;3.53;2.00;;;;;;;;;;5078163;28;20649;-67
2021/12/08 11:28:19;;;;;;;2.60;2.40;;;;;;;;;;5080056;28;20875;-69
2021/12/08 11:30:47;;;;;;;2.93;2.00;;;;;;;;;;5097738;28;20205;-68
2021/12/08 11:33:17;;;;;;;2.50;1.93;;;;;;;;;;5098262;28;20240;-68
2021/12/08 11:35:45;;;;;;;3.23;2.23;;;;;;;;;;5097404;28;20240;-68
2021/12/08 11:38:24;;;;;;;3.57;2.67;;;;;;;;;;5097978;28;20232;-68
2021/12/08 11:40:52;;;;;;;2.77;2.20;;;;;;;;;;5084053;28;20289;-67
2021/12/08 11:43:28;;;;;;;4.87;2.80;;;;;;;;;;5084629;28;20236;-67
2021/12/08 11:46:10;;;;;;;4.07;2.90;;;;;;;;;;5087296;28;20197;-68
2021/12/08 11:48:49;;;;;;;4.13;3.73;;;;;;;;;;5080389;28;20230;-66
2021/12/08 11:51:18;;;;;;;6.83;4.03;;;;;;;;;;5078512;28;20205;-67
2021/12/08 11:53:48;;;;;;;4.37;3.20;;;;;;;;;;5079786;28;20256;-67
2021/12/08 11:56:31;;;;;;;4.37;2.00;;;;;;;;;;5085916;28;20228;-69
2021/12/08 11:59:00;;;;;;;2.20;1.83;;;;;;;;;;5082121;28;20317;-70
2021/12/08 12:01:28;;;;;;;0.97;0.97;;;;;;;;;;5082540;28;20205;-68
2021/12/08 12:03:56;;;;;;;2.60;1.20;;;;;;;;;;5088286;28;20224;-68
2021/12/08 12:06:28;;;;;;;1.07;0.97;;;;;;;;;;5081959;28;20285;-68
2021/12/08 12:08:58;;;;;;;2.67;1.30;;;;;;;;;;5080424;28;20225;-67
2021/12/08 12:11:48;;;;;;;3.90;1.37;;;;;;;;;;5082576;28;20198;-69
2021/12/08 12:14:16;;;;;;;2.37;1.10;;;;;;;;;;5080365;28;20292;-69
2021/12/08 12:16:45;;;;;;;2.50;1.20;;;;;;;;;;5078561;28;20222;-69
2021/12/08 12:19:16;;;;;;;0.90;0.90;;;;;;;;;;5076624;28;20261;-69
2021/12/08 12:21:52;;;;;;;0.93;0.93;;;;;;;;;;5082390;28;20198;-69
2021/12/08 12:24:38;;;;;;;0.93;0.93;;;;;;;;;;5081328;28;20444;-69
2021/12/08 12:27:16;;;;;;;1.80;0.97;;;;;;;;;;5088249;28;20432;-69
2021/12/08 12:29:53;;;;;;;2.03;1.37;;;;;;;;;;5093022;28;20463;-69
2021/12/08 12:32:24;;;;;;;1.30;1.20;;;;;;;;;;5097412;28;20526;-69
2021/12/08 12:34:53;;;;;;;2.57;1.70;;;;;;;;;;5096762;28;20975;-69
2021/12/08 12:37:32;;;;;;;1.27;1.03;;;;;;;;;;5096750;28;20483;-69
2021/12/08 12:40:01;;;;;;;3.37;2.03;;;;;;;;;;5087075;28;20470;-68
2021/12/08 12:42:43;;;;;;;14.33;3.53;;;;;;;;;;5077140;28;20448;-69
2021/12/08 12:45:13;;;;;;;4.07;1.73;;;;;;;;;;5076981;28;20454;-70
2021/12/08 12:47:41;;;;;;;2.00;1.10;;;;;;;;;;5076819;28;21007;-69
2021/12/08 12:50:27;;;;;;;1.10;1.00;;;;;;;;;;5076247;28;20471;-70
2021/12/08 12:52:56;;;;;;;1.10;1.10;;;;;;;;;;5076975;28;20479;-70
2021/12/08 12:55:25;;;;;;;1.57;1.47;;;;;;;;;;5093147;28;20523;-70
2021/12/08 12:58:16;;;;;;;2.60;1.60;;;;;;;;;;5096693;28;20439;-64
2021/12/08 13:00:46;;;;;;;1.20;1.20;;;;;;;;;;5096855;28;20498;-65
2021/12/08 13:03:47;;;;;;;2.13;1.33;;;;;;;;;;5087576;28;20452;-64
2021/12/08 13:06:16;;;;;;;2.27;1.50;;;;;;;;;;5031198;28;20476;-64
2021/12/08 13:08:46;;;;;;;2.03;1.77;;;;;;;;;;5033639;28;20461;-64
2021/12/08 13:11:42;;;;;;;4.47;2.20;;;;;;;;;;5058374;28;20476;-65
2021/12/08 13:14:21;;;;;;;1.60;1.50;;;;;;;;;;5087502;28;20439;-65
2021/12/08 13:17:07;;;;;;;3.73;1.60;;;;;;;;;;5087605;28;20838;-64
2021/12/08 13:19:38;;;;;;;1.93;1.37;;;;;;;;;;5092007;28;20473;-65
2021/12/08 13:22:06;;;;;;;3.50;2.10;;;;;;;;;;5089459;28;20476;-64
2021/12/08 13:24:38;;;;;;;4.63;1.70;;;;;;;;;;5091505;28;20428;-65
2021/12/08 13:27:08;;;;;;;1.23;1.17;;;;;;;;;;5089930;28;20494;-65
2021/12/08 13:29:40;;;;;;;1.53;1.43;;;;;;;;;;5088436;28;20888;-64
2021/12/08 13:32:12;;;;;;;2.40;1.87;;;;;;;;;;5090907;28;21152;-64
2021/12/08 13:34:42;;;;;;;1.97;1.87;;;;;;;;;;5089497;28;20443;-65
2021/12/08 13:37:14;;;;;;;3.23;1.80;;;;;;;;;;5075717;28;20491;-64
2021/12/08 13:39:43;;;;;;;1.63;1.53;;;;;;;;;;5068275;28;20223;-64
2021/12/08 13:42:33;;;;;;;4.47;2.00;;;;;;;;;;5073330;28;20198;-64
2021/12/08 13:45:05;;;;;;;2.07;1.53;;;;;;;;;;5071466;28;20209;-65
2021/12/08 13:47:34;;;;;;;2.23;1.73;;;;;;;;;;5070970;28;20194;-64
2021/12/08 13:50:07;;;;;;;2.80;1.57;;;;;;;;;;5068798;28;20464;-64
2021/12/08 13:52:36;;;;;;;2.77;1.50;;;;;;;;;;5076880;28;20502;-70
2021/12/08 13:55:18;;;;;;;1.70;1.50;;;;;;;;;;5077888;28;20479;-70
2021/12/08 13:57:46;;;;;;;1.53;1.40;;;;;;;;;;5080376;28;20547;-71
2021/12/08 14:00:27;;;;;;;3.23;2.10;;;;;;;;;;5079095;28;20808;-70
2021/12/08 14:02:55;;;;;;;3.53;1.90;;;;;;;;;;5070509;28;20498;-71
2021/12/08 14:05:25;;;;;;;5.60;1.70;;;;;;;;;;5069543;28;20440;-70
2021/12/08 14:07:54;;;;;;;3.30;2.07;;;;;;;;;;5067328;28;20441;-71
2021/12/08 14:10:24;;;;;;;1.87;1.60;;;;;;;;;;5059349;28;20950;-70
2021/12/08 14:12:54;;;;;;;2.90;1.80;;;;;;;;;;5059060;28;20449;-71
2021/12/08 14:15:32;;;;;;;3.13;1.73;;;;;;;;;;5059308;28;20979;-71
2021/12/08 14:18:13;;;;;;;2.63;1.87;;;;;;;;;;5059239;28;21023;-71
2021/12/08 14:20:42;;;;;;;3.37;2.00;;;;;;;;;;5059980;28;20445;-70
2021/12/08 14:23:10;;;;;;;4.60;1.67;;;;;;;;;;5079067;28;20810;-71
2021/12/08 14:25:40;;;;;;;4.53;2.30;;;;;;;;;;5078853;28;20532;-71
2021/12/08 14:28:26;;;;;;;2.00;1.67;;;;;;;;;;5078399;28;20900;-71
2021/12/08 14:30:57;;;;;;;2.37;1.83;;;;;;;;;;5078867;28;20449;-71
2021/12/08 14:33:26;;;;;;;2.83;2.17;;;;;;;;;;5078852;28;20445;-72
2021/12/08 14:35:55;;;;;;;2.00;1.80;;;;;;;;;;5082384;28;20467;-69
2021/12/08 14:38:22;;;;;;;6.83;2.30;;;;;;;;;;5098808;28;21010;-72
2021/12/08 14:40:50;;;;;;;2.30;2.00;;;;;;;;;;5082179;28;20445;-72
2021/12/08 14:43:25;;;;;;;1.97;1.67;;;;;;;;;;5089435;28;20844;-72
2021/12/08 14:45:54;;;;;;;2.53;1.77;;;;;;;;;;5078898;28;20527;-72
2021/12/08 14:48:23;;;;;;;2.03;1.77;;;;;;;;;;5078725;28;20471;-72
2021/12/08 14:50:51;;;;;;;3.80;2.00;;;;;;;;;;5078359;28;20441;-72
2021/12/08 14:53:19;;;;;;;3.47;2.17;;;;;;;;;;5078925;28;20448;-72
2021/12/08 14:55:47;;;;;;;5.43;2.20;;;;;;;;;;5078891;28;21000;-72
2021/12/08 14:58:15;;;;;;;2.20;2.00;;;;;;;;;;5079417;28;20484;-73
2021/12/08 15:00:43;;;;;;;2.03;1.90;;;;;;;;;;5081128;28;20504;-72
2021/12/08 15:03:14;;;;;;;2.90;2.50;;;;;;;;;;5089811;28;20437;-69
2021/12/08 15:05:47;;;;;;;3.60;2.67;;;;;;;;;;5089864;28;20915;-69
2021/12/08 15:08:16;;;;;;;4.50;2.67;;;;;;;;;;5089033;28;20505;-67
2021/12/08 15:10:45;;;;;;;2.33;2.13;;;;;;;;;;5091501;28;20446;-70
2021/12/08 15:13:13;;;;;;;3.50;2.43;;;;;;;;;;5089830;28;20436;-69
2021/12/08 15:15:43;;;;;;;2.37;2.00;;;;;;;;;;5098356;28;20543;-69
2021/12/08 15:18:12;;;;;;;3.73;2.93;;;;;;;;;;5098328;28;20590;-68
2021/12/08 15:20:58;;;;;;;2.33;2.10;;;;;;;;;;5098152;28;20469;-69
2021/12/08 15:23:38;;;;;;;2.00;1.90;;;;;;;;;;5078972;28;20523;-69
2021/12/08 15:26:08;;;;;;;5.37;1.83;;;;;;;;;;5078174;28;20448;-69
2021/12/08 15:28:36;;;;;;;3.77;2.00;;;;;;;;;;5083746;28;20455;-69
2021/12/08 15:31:05;;;;;;;2.47;1.77;;;;;;;;;;5087359;28;20440;-69
2021/12/08 15:33:34;;;;;;;4.87;2.00;;;;;;;;;;5078040;28;20444;-69
2021/12/08 15:36:06;;;;;;;3.00;2.03;;;;;;;;;;5077270;28;20473;-69
2021/12/08 15:38:34;;;;;;;2.33;1.70;;;;;;;;;;5082112;28;20485;-69